Time;durP1;ratioP1;P1;durP2;ratioP2;P2;SDS_P1;SDS_P2;PMS_P1;PMS_P2;Temp;Humidity;BMP_temperature;BMP_pressure;BME280_temperature;BME280_humidity;BME280_pressure;Samples;Min_cycle;Max_cycle;Signal;HPM_P1;HPM_P2
2022/04/27 00:02:18;;;;;;;2.35;1.10;;;19.20;58.30;;;;;;5123076;27;45311;-80
2022/04/27 00:04:45;;;;;;;1.55;1.10;;;19.20;57.60;;;;;;5123091;27;45554;-80
2022/04/27 00:07:12;;;;;;;1.52;1.08;;;19.20;57.60;;;;;;5128537;27;48314;-79
2022/04/27 00:09:38;;;;;;;1.77;1.30;;;19.20;57.50;;;;;;5127648;27;45312;-80
2022/04/27 00:12:08;;;;;;;2.55;1.55;;;19.20;57.60;;;;;;5127160;27;45330;-80
2022/04/27 00:14:35;;;;;;;2.13;1.20;;;19.20;57.40;;;;;;5126210;27;45232;-80
2022/04/27 00:17:02;;;;;;;2.05;1.08;;;19.20;57.50;;;;;;5130925;27;46956;-79
2022/04/27 00:19:28;;;;;;;1.52;1.40;;;19.20;57.50;;;;;;5125516;27;45344;-80
2022/04/27 00:21:55;;;;;;;1.25;1.10;;;19.20;57.40;;;;;;5131628;27;45263;-80
2022/04/27 00:24:22;;;;;;;3.10;1.25;;;19.20;58.00;;;;;;5127364;27;45510;-80
2022/04/27 00:26:49;;;;;;;2.17;1.33;;;19.20;59.20;;;;;;5127135;27;46202;-80
2022/04/27 00:29:17;;;;;;;3.05;1.30;;;19.20;59.20;;;;;;5128357;27;45214;-80
2022/04/27 00:31:44;;;;;;;1.80;1.17;;;19.20;60.10;;;;;;5126591;27;45228;-80
2022/04/27 00:34:11;;;;;;;1.42;1.10;;;19.20;59.60;;;;;;5120287;27;45491;-80
2022/04/27 00:36:37;;;;;;;2.10;1.33;;;19.20;60.10;;;;;;5118372;27;46471;-80
2022/04/27 00:39:05;;;;;;;1.33;1.20;;;19.20;60.00;;;;;;5123789;27;45255;-80
2022/04/27 00:41:32;;;;;;;1.63;1.35;;;19.20;60.00;;;;;;5107727;27;45546;-79
2022/04/27 00:43:58;;;;;;;2.53;1.35;;;19.20;60.10;;;;;;5111364;27;45464;-79
2022/04/27 00:46:27;;;;;;;3.25;1.20;;;19.20;60.10;;;;;;5128949;27;46516;-80
2022/04/27 00:48:53;;;;;;;1.58;1.20;;;19.20;60.00;;;;;;5127278;27;45380;-79
2022/04/27 00:51:23;;;;;;;2.88;1.30;;;19.10;58.70;;;;;;5126174;27;45439;-80
2022/04/27 00:53:50;;;;;;;2.42;1.30;;;19.20;58.40;;;;;;5126585;27;45688;-80
2022/04/27 00:56:18;;;;;;;1.73;1.40;;;19.20;57.40;;;;;;5128238;27;46101;-80
2022/04/27 00:58:47;;;;;;;2.15;1.30;;;19.20;57.10;;;;;;5124311;27;45445;-80
2022/04/27 01:01:14;;;;;;;2.40;1.55;;;19.20;56.50;;;;;;5128366;27;46270;-80
2022/04/27 01:03:43;;;;;;;1.98;1.45;;;19.20;56.70;;;;;;5125370;27;45313;-80
2022/04/27 01:06:10;;;;;;;2.80;1.80;;;19.20;56.50;;;;;;5127565;27;46999;-80
2022/04/27 01:08:37;;;;;;;1.30;1.20;;;19.20;56.30;;;;;;5125706;27;45472;-80
2022/04/27 01:11:04;;;;;;;2.40;1.60;;;19.20;56.60;;;;;;5119264;27;45332;-80
2022/04/27 01:13:31;;;;;;;2.83;1.52;;;19.20;56.90;;;;;;5124298;27;45273;-80
2022/04/27 01:15:57;;;;;;;1.83;1.40;;;19.20;57.70;;;;;;5127309;27;45334;-80
2022/04/27 01:18:24;;;;;;;2.15;1.45;;;19.20;56.90;;;;;;5122491;27;45530;-80
2022/04/27 01:20:52;;;;;;;2.08;1.45;;;19.20;57.50;;;;;;5128467;27;45303;-80
2022/04/27 01:23:19;;;;;;;2.28;1.27;;;19.20;57.70;;;;;;5118049;27;45433;-80
2022/04/27 01:25:49;;;;;;;2.13;1.50;;;19.20;58.90;;;;;;5120644;27;47590;-80
2022/04/27 01:28:17;;;;;;;2.60;1.65;;;19.20;59.40;;;;;;5124134;27;45331;-80
2022/04/27 01:30:44;;;;;;;2.67;1.30;;;19.20;59.30;;;;;;5128148;27;45182;-80
2022/04/27 01:33:12;;;;;;;2.15;1.40;;;19.20;59.40;;;;;;5121642;27;45338;-80
2022/04/27 01:35:40;;;;;;;2.25;1.52;;;19.20;59.50;;;;;;5126087;27;45494;-80
2022/04/27 01:38:09;;;;;;;2.28;1.38;;;19.20;59.60;;;;;;5126252;27;45310;-80
2022/04/27 01:40:36;;;;;;;2.42;1.45;;;19.20;59.70;;;;;;5126950;27;45175;-80
2022/04/27 01:43:04;;;;;;;3.00;1.50;;;19.20;59.30;;;;;;5125161;27;45388;-80
2022/04/27 01:45:31;;;;;;;1.80;1.60;;;19.20;58.10;;;;;;5126203;27;47712;-80
2022/04/27 01:47:58;;;;;;;2.17;1.50;;;19.20;57.40;;;;;;5126668;27;45533;-80
2022/04/27 01:50:25;;;;;;;2.25;1.50;;;19.20;56.70;;;;;;5126865;27;45294;-80
2022/04/27 01:55:38;;;;;;;2.67;1.55;;;19.20;56.40;;;;;;5121059;27;45337;-79
2022/04/27 01:58:05;;;;;;;2.25;1.50;;;19.20;56.10;;;;;;5125868;27;45607;-80
2022/04/27 02:00:33;;;;;;;1.85;1.60;;;19.20;56.10;;;;;;5125395;27;45270;-80
2022/04/27 02:03:00;;;;;;;3.22;1.90;;;19.20;56.10;;;;;;5128411;27;45611;-80
2022/04/27 02:05:27;;;;;;;1.92;1.48;;;19.20;56.20;;;;;;5119068;27;45701;-80
2022/04/27 02:07:54;;;;;;;2.33;1.83;;;19.20;56.10;;;;;;5121240;27;45672;-80
2022/04/27 02:10:21;;;;;;;4.85;1.80;;;19.20;56.40;;;;;;5122327;27;45262;-80
2022/04/27 02:12:50;;;;;;;1.88;1.38;;;19.20;56.40;;;;;;5126010;27;45191;-80
2022/04/27 02:15:16;;;;;;;2.53;1.40;;;19.20;57.10;;;;;;5116320;27;46200;-80
2022/04/27 02:17:43;;;;;;;1.90;1.60;;;19.20;57.30;;;;;;5123619;27;45801;-80
2022/04/27 02:20:11;;;;;;;2.80;1.65;;;19.20;58.10;;;;;;5120562;27;45190;-79
2022/04/27 02:22:38;;;;;;;2.60;1.63;;;19.20;58.60;;;;;;5126259;27;45303;-79
2022/04/27 02:25:05;;;;;;;1.85;1.40;;;19.20;58.60;;;;;;5119818;27;46295;-80
2022/04/27 02:27:33;;;;;;;3.42;1.45;;;19.20;58.50;;;;;;5124729;27;45295;-80
2022/04/27 02:30:01;;;;;;;2.88;1.52;;;19.20;58.80;;;;;;5126099;27;45432;-79
2022/04/27 02:32:28;;;;;;;4.57;1.75;;;19.20;59.20;;;;;;5126611;27;45699;-80
2022/04/27 02:34:55;;;;;;;2.40;1.70;;;19.20;59.10;;;;;;5116476;27;47364;-80
2022/04/27 02:37:21;;;;;;;3.17;1.73;;;19.20;58.50;;;;;;5128436;27;45208;-80
2022/04/27 02:39:48;;;;;;;3.25;1.63;;;19.20;57.30;;;;;;5119504;27;45451;-80
2022/04/27 02:42:15;;;;;;;2.35;1.73;;;19.20;56.90;;;;;;5126937;27;45665;-80
2022/04/27 02:44:42;;;;;;;2.53;1.63;;;19.20;56.50;;;;;;5126254;27;47635;-80
2022/04/27 02:47:11;;;;;;;3.20;1.70;;;19.20;55.90;;;;;;5127093;27;45536;-80
2022/04/27 02:52:22;;;;;;;2.80;1.40;;;19.20;56.30;;;;;;5120454;27;45272;-80
2022/04/27 02:54:49;;;;;;;3.63;1.60;;;19.20;56.20;;;;;;5124819;27;46608;-80
2022/04/27 02:57:16;;;;;;;1.50;1.38;;;19.10;56.20;;;;;;5110171;27;45496;-80
2022/04/27 02:59:42;;;;;;;3.45;2.10;;;19.10;56.00;;;;;;5122653;27;45577;-80
2022/04/27 03:02:11;;;;;;;2.25;1.70;;;19.10;56.00;;;;;;5123608;27;46906;-80
2022/04/27 03:04:38;;;;;;;2.13;1.60;;;19.20;55.90;;;;;;5130619;27;45231;-80
2022/04/27 03:07:05;;;;;;;2.22;1.80;;;19.10;56.20;;;;;;5129639;27;45554;-80
2022/04/27 03:09:32;;;;;;;2.67;1.83;;;19.20;57.00;;;;;;5129661;27;45345;-80
2022/04/27 03:11:58;;;;;;;3.10;1.77;;;19.20;57.70;;;;;;5132609;27;45170;-80
2022/04/27 03:14:25;;;;;;;3.55;1.73;;;19.20;57.10;;;;;;5134552;27;46043;-80
2022/04/27 03:16:53;;;;;;;2.65;1.60;;;19.20;57.80;;;;;;5134079;27;45576;-80
2022/04/27 03:19:21;;;;;;;2.22;1.40;;;19.20;58.10;;;;;;5131176;27;45374;-80
2022/04/27 03:21:48;;;;;;;2.00;1.60;;;19.20;58.00;;;;;;5129977;27;45289;-80
2022/04/27 03:24:15;;;;;;;3.53;1.67;;;19.20;57.90;;;;;;5130719;27;46309;-79
2022/04/27 03:26:44;;;;;;;3.35;1.63;;;19.20;57.70;;;;;;5130613;27;45959;-80
2022/04/27 03:29:11;;;;;;;2.90;1.70;;;19.20;58.00;;;;;;5131174;27;45358;-80
2022/04/27 03:31:38;;;;;;;2.88;1.77;;;19.20;56.60;;;;;;5133906;27;45357;-79
2022/04/27 03:34:05;;;;;;;2.47;1.80;;;19.20;56.10;;;;;;5126644;27;47295;-79
2022/04/27 03:36:33;;;;;;;2.65;1.80;;;19.10;55.50;;;;;;5129527;27;45455;-79
2022/04/27 03:39:00;;;;;;;3.25;1.88;;;19.10;55.50;;;;;;5130201;27;45753;-80
2022/04/27 03:41:28;;;;;;;2.78;2.15;;;19.10;55.40;;;;;;5132760;27;45450;-79
2022/04/27 03:43:55;;;;;;;3.30;2.03;;;19.10;55.70;;;;;;5123445;27;45478;-79
2022/04/27 03:46:22;;;;;;;3.70;2.00;;;19.10;55.70;;;;;;5132921;27;45271;-80
2022/04/27 03:48:49;;;;;;;2.70;1.70;;;19.10;55.40;;;;;;5130094;27;45382;-80
2022/04/27 03:51:16;;;;;;;3.38;1.95;;;19.10;54.80;;;;;;5128101;27;45457;-80
2022/04/27 03:53:45;;;;;;;2.45;1.70;;;19.10;54.80;;;;;;5124603;27;47850;-80
2022/04/27 03:56:12;;;;;;;2.72;2.00;;;19.10;54.30;;;;;;5120799;27;45212;-80
2022/04/27 03:58:38;;;;;;;2.25;1.73;;;19.10;56.00;;;;;;5134463;27;45323;-79
2022/04/27 04:01:05;;;;;;;2.35;1.58;;;19.10;54.80;;;;;;5131016;27;45181;-79
2022/04/27 04:03:32;;;;;;;2.50;1.83;;;19.10;55.50;;;;;;5127894;27;47229;-80
2022/04/27 04:05:59;;;;;;;3.17;2.08;;;19.10;56.60;;;;;;5127457;27;45287;-80
2022/04/27 04:08:25;;;;;;;2.20;1.80;;;19.10;56.90;;;;;;5120042;27;45381;-80
2022/04/27 04:10:54;;;;;;;2.20;1.48;;;19.10;56.60;;;;;;5133172;27;45196;-79
2022/04/27 04:13:22;;;;;;;2.58;1.58;;;19.10;57.40;;;;;;5115486;27;47970;-79
2022/04/27 04:15:49;;;;;;;2.80;1.90;;;19.10;57.10;;;;;;5127913;27;45291;-79
2022/04/27 04:18:16;;;;;;;2.40;1.70;;;19.10;57.10;;;;;;5127191;27;45309;-79
2022/04/27 04:20:44;;;;;;;3.28;1.70;;;19.10;57.10;;;;;;5125068;27;45545;-80
2022/04/27 04:23:11;;;;;;;2.22;1.70;;;19.10;56.60;;;;;;5126167;27;47017;-79
2022/04/27 04:28:31;;;;;;;1.75;1.63;;;19.10;55.20;;;;;;5081712;27;45424;-80
2022/04/27 04:30:59;;;;;;;3.53;2.10;;;19.10;54.60;;;;;;5123287;27;45381;-80
2022/04/27 04:33:26;;;;;;;2.75;1.90;;;19.10;54.40;;;;;;5124339;27;46287;-79
2022/04/27 04:35:53;;;;;;;3.13;1.83;;;19.10;54.40;;;;;;5126021;27;46153;-79
2022/04/27 04:38:20;;;;;;;2.45;1.50;;;19.10;54.10;;;;;;5119290;27;45762;-79
2022/04/27 04:40:46;;;;;;;3.45;1.80;;;19.10;54.40;;;;;;5127344;27;45162;-80
2022/04/27 04:43:13;;;;;;;3.42;1.73;;;19.10;53.30;;;;;;5121463;27;46252;-80
2022/04/27 04:45:41;;;;;;;3.47;1.70;;;19.10;53.90;;;;;;5123466;27;45212;-81
2022/04/27 04:48:09;;;;;;;2.45;1.98;;;19.00;53.20;;;;;;5125677;27;45221;-81
2022/04/27 04:50:36;;;;;;;2.88;1.80;;;19.00;53.30;;;;;;5126891;27;45313;-81
2022/04/27 04:53:04;;;;;;;3.05;1.92;;;19.00;53.90;;;;;;5128316;27;46469;-81
2022/04/27 04:55:31;;;;;;;3.92;1.80;;;19.00;54.70;;;;;;5119831;27;45438;-81
2022/04/27 04:57:58;;;;;;;3.05;2.08;;;19.00;54.20;;;;;;5127047;27;45418;-81
2022/04/27 05:00:25;;;;;;;4.20;2.00;;;19.00;54.60;;;;;;5127049;27;45482;-81
2022/04/27 05:02:54;;;;;;;4.30;2.40;;;19.10;54.40;;;;;;5123948;27;48091;-79
2022/04/27 05:05:21;;;;;;;3.75;2.28;;;19.00;53.90;;;;;;5123136;27;45182;-80
2022/04/27 05:07:48;;;;;;;4.18;2.00;;;19.00;54.50;;;;;;5122510;27;45158;-79
2022/04/27 05:10:15;;;;;;;3.30;1.80;;;19.00;54.40;;;;;;5127147;27;45404;-80
2022/04/27 05:12:42;;;;;;;3.42;1.80;;;19.10;55.10;;;;;;5119549;27;48192;-80
2022/04/27 05:15:11;;;;;;;2.67;1.60;;;19.10;54.80;;;;;;5124375;27;45490;-80
2022/04/27 05:17:39;;;;;;;3.30;1.80;;;19.10;55.10;;;;;;5127589;27;45279;-80
2022/04/27 05:20:08;;;;;;;2.42;1.90;;;19.00;55.10;;;;;;5125918;27;45163;-80
2022/04/27 05:22:38;;;;;;;2.88;2.15;;;19.00;55.20;;;;;;5129289;27;47310;-79
2022/04/27 05:25:06;;;;;;;3.10;1.90;;;19.00;55.10;;;;;;5129222;27;45322;-79
2022/04/27 05:27:33;;;;;;;3.22;1.80;;;19.00;55.50;;;;;;5128092;27;45257;-79
2022/04/27 05:32:45;;;;;;;25.08;3.22;;;19.00;57.10;;;;;;5113626;27;45783;-80
2022/04/27 05:35:13;;;;;;;18.70;2.97;;;19.10;55.90;;;;;;5116984;27;45948;-81
2022/04/27 05:37:40;;;;;;;7.68;2.42;;;19.10;54.70;;;;;;5124191;27;45547;-81
2022/04/27 05:40:08;;;;;;;5.15;2.05;;;19.10;53.80;;;;;;5123869;27;45328;-82
2022/04/27 05:42:36;;;;;;;7.78;2.90;;;19.10;53.30;;;;;;5115779;27;47403;-82
2022/04/27 05:45:03;;;;;;;4.25;2.30;;;19.10;53.30;;;;;;5121351;27;45369;-82
2022/04/27 05:47:31;;;;;;;6.38;2.00;;;19.00;53.20;;;;;;5122003;27;45371;-82
2022/04/27 05:49:57;;;;;;;2.88;1.92;;;19.10;53.30;;;;;;5122485;27;45199;-81
2022/04/27 05:52:26;;;;;;;3.35;1.98;;;19.00;53.20;;;;;;5126901;27;46514;-82
2022/04/27 05:54:53;;;;;;;2.90;1.95;;;19.00;52.60;;;;;;5125269;27;45455;-83
2022/04/27 05:57:20;;;;;;;3.47;2.40;;;19.00;52.50;;;;;;5125778;27;45296;-81
2022/04/27 05:59:47;;;;;;;4.00;2.15;;;19.00;53.30;;;;;;5124887;27;45729;-82
2022/04/27 06:02:14;;;;;;;3.80;2.25;;;19.10;57.60;;;;;;5123684;27;48076;-82
2022/04/27 06:04:41;;;;;;;7.25;2.50;;;19.10;56.50;;;;;;5117036;27;45197;-82
2022/04/27 06:07:07;;;;;;;5.00;2.50;;;19.10;56.30;;;;;;5116491;27;46305;-80
2022/04/27 06:09:36;;;;;;;5.45;2.40;;;19.00;55.10;;;;;;5113021;27;45281;-81
2022/04/27 06:12:05;;;;;;;5.00;2.30;;;19.00;55.50;;;;;;5120820;27;48376;-82
2022/04/27 06:14:32;;;;;;;3.97;2.17;;;19.00;55.70;;;;;;5120458;27;45227;-82
2022/04/27 06:16:58;;;;;;;3.63;2.30;;;19.10;56.10;;;;;;5122674;27;45287;-82
2022/04/27 06:19:25;;;;;;;2.90;1.87;;;19.10;56.30;;;;;;5123524;27;45471;-82
2022/04/27 06:21:52;;;;;;;2.90;1.95;;;19.10;56.20;;;;;;5113531;27;47228;-82
2022/04/27 06:24:19;;;;;;;4.00;2.20;;;19.10;56.20;;;;;;5117641;27;45120;-82
2022/04/27 06:26:47;;;;;;;4.20;2.40;;;19.10;56.20;;;;;;5120357;27;45437;-82
2022/04/27 06:29:14;;;;;;;2.85;1.90;;;19.10;56.30;;;;;;5120150;27;45339;-82
2022/04/27 06:31:40;;;;;;;4.10;2.25;;;19.10;56.30;;;;;;5122879;27;46801;-82
2022/04/27 06:34:07;;;;;;;3.05;2.20;;;19.10;56.30;;;;;;5125856;27;45416;-82
2022/04/27 06:36:36;;;;;;;2.80;1.90;;;19.10;56.60;;;;;;5116351;27;45270;-82
2022/04/27 06:39:04;;;;;;;3.17;1.75;;;19.10;56.60;;;;;;5124538;27;45402;-82
2022/04/27 06:41:31;;;;;;;2.90;2.25;;;19.10;56.60;;;;;;5127714;27;45269;-82
2022/04/27 06:44:00;;;;;;;3.40;2.33;;;19.20;56.90;;;;;;5120834;27;45253;-82
2022/04/27 06:46:26;;;;;;;2.80;1.85;;;19.20;57.00;;;;;;5125064;27;45115;-82
2022/04/27 06:48:55;;;;;;;3.05;2.05;;;19.20;56.90;;;;;;5119271;27;45305;-83
2022/04/27 06:51:22;;;;;;;3.67;2.00;;;19.20;57.00;;;;;;5117829;27;47256;-83
2022/04/27 06:53:49;;;;;;;2.53;1.83;;;19.20;57.20;;;;;;5118204;27;45471;-82
2022/04/27 06:56:16;;;;;;;3.70;2.00;;;19.20;57.20;;;;;;5125086;27;45488;-82
2022/04/27 06:58:43;;;;;;;3.42;2.10;;;19.20;57.70;;;;;;5123450;27;45249;-81
2022/04/27 07:01:13;;;;;;;4.55;2.38;;;19.20;57.70;;;;;;5124847;27;46603;-82
2022/04/27 07:03:40;;;;;;;3.38;2.15;;;19.20;57.90;;;;;;5123959;27;46471;-81
2022/04/27 07:06:09;;;;;;;4.15;1.88;;;19.20;57.60;;;;;;5122880;27;45241;-82
2022/04/27 07:08:36;;;;;;;5.80;2.13;;;19.20;57.70;;;;;;5126953;27;45490;-82
2022/04/27 07:11:03;;;;;;;2.65;1.83;;;19.20;58.00;;;;;;5118970;27;47376;-82
2022/04/27 07:13:30;;;;;;;3.38;2.15;;;19.20;57.80;;;;;;5123672;27;45420;-82
2022/04/27 07:16:00;;;;;;;5.35;2.08;;;19.20;57.70;;;;;;5122516;27;45621;-83
2022/04/27 07:18:29;;;;;;;3.42;1.77;;;19.20;59.60;;;;;;5126404;27;45519;-81
2022/04/27 07:20:56;;;;;;;6.47;1.92;;;19.30;61.00;;;;;;5124179;27;45543;-81
2022/04/27 07:23:23;;;;;;;76.55;8.07;;;19.30;62.70;;;;;;5126613;27;45153;-84
2022/04/27 07:25:50;;;;;;;18.58;2.83;;;19.30;64.00;;;;;;5114891;27;45493;-82
2022/04/27 07:28:17;;;;;;;12.80;2.53;;;19.30;64.50;;;;;;5118771;27;45430;-81
2022/04/27 07:30:44;;;;;;;7.00;2.45;;;19.20;63.30;;;;;;5120513;27;47934;-82
2022/04/27 07:33:11;;;;;;;12.73;2.10;;;19.20;63.60;;;;;;5120315;27;45255;-82
2022/04/27 07:35:39;;;;;;;11.38;2.55;;;19.10;63.70;;;;;;5114974;27;45198;-82
2022/04/27 07:38:06;;;;;;;6.72;1.83;;;19.10;64.50;;;;;;5127286;27;45365;-82
2022/04/27 07:40:33;;;;;;;5.03;1.90;;;19.10;64.30;;;;;;5124708;27;46599;-82
2022/04/27 07:43:00;;;;;;;8.00;1.90;;;19.10;64.90;;;;;;5117745;27;45145;-82
2022/04/27 07:45:27;;;;;;;7.18;2.33;;;19.10;65.60;;;;;;5128265;27;45571;-82
2022/04/27 07:47:54;;;;;;;5.78;1.67;;;19.10;66.20;;;;;;5128559;27;45760;-82
2022/04/27 07:50:22;;;;;;;3.92;1.88;;;19.10;66.00;;;;;;5127768;27;46375;-82
2022/04/27 07:52:50;;;;;;;3.83;1.42;;;19.10;66.30;;;;;;5130266;27;45192;-82
2022/04/27 07:55:17;;;;;;;7.70;1.85;;;19.10;66.00;;;;;;5129148;27;45315;-82
2022/04/27 07:57:45;;;;;;;4.15;1.92;;;19.10;66.20;;;;;;5131377;27;45206;-82
2022/04/27 08:00:13;;;;;;;3.53;1.80;;;19.10;64.90;;;;;;5128649;27;46551;-82
2022/04/27 08:02:40;;;;;;;7.38;1.95;;;19.10;65.40;;;;;;5125607;27;45223;-82
2022/04/27 08:05:08;;;;;;;5.20;1.80;;;19.00;65.00;;;;;;5122131;27;45820;-82
2022/04/27 08:07:37;;;;;;;3.17;1.75;;;19.00;65.00;;;;;;5125403;27;45385;-82
2022/04/27 08:10:11;;;;;;;6.70;1.95;;;19.00;65.40;;;;;;5129526;27;45304;-82
2022/04/27 08:12:38;;;;;;;5.15;2.00;;;19.00;66.00;;;;;;5124323;27;45414;-82
2022/04/27 08:15:06;;;;;;;3.88;1.50;;;19.00;65.80;;;;;;5132971;27;45391;-82
2022/04/27 08:17:33;;;;;;;4.93;1.60;;;19.00;66.50;;;;;;5131076;27;45097;-82
2022/04/27 08:22:44;;;;;;;4.28;1.77;;;19.00;67.30;;;;;;5128883;27;45277;-82
2022/04/27 08:25:13;;;;;;;3.40;1.90;;;19.00;67.30;;;;;;5130999;27;45273;-82
2022/04/27 08:27:40;;;;;;;3.80;1.80;;;19.10;67.50;;;;;;5127479;27;45344;-82
2022/04/27 08:30:08;;;;;;;2.90;1.77;;;19.10;68.50;;;;;;5130347;27;45981;-82
2022/04/27 08:32:34;;;;;;;4.30;1.90;;;19.10;68.00;;;;;;5122360;27;45767;-83
2022/04/27 08:35:01;;;;;;;2.85;1.60;;;19.10;67.90;;;;;;5129877;27;45263;-83
2022/04/27 08:37:28;;;;;;;2.30;1.60;;;19.10;68.00;;;;;;5128729;27;45405;-83
2022/04/27 08:39:55;;;;;;;4.65;1.80;;;19.10;67.20;;;;;;5129913;27;47099;-83
2022/04/27 08:42:23;;;;;;;3.50;2.00;;;19.10;67.90;;;;;;5117097;27;45140;-82
2022/04/27 08:44:50;;;;;;;4.63;2.15;;;19.10;67.10;;;;;;5121800;27;45457;-83
2022/04/27 08:47:17;;;;;;;4.07;2.20;;;19.10;68.50;;;;;;5120091;27;45292;-82
2022/04/27 08:49:44;;;;;;;2.75;1.58;;;19.00;69.40;;;;;;5125200;27;46530;-81
2022/04/27 08:52:12;;;;;;;2.35;1.63;;;19.00;69.60;;;;;;5127383;27;45442;-84
2022/04/27 08:54:40;;;;;;;2.75;1.35;;;19.00;70.50;;;;;;5130624;27;45439;-83
2022/04/27 08:57:07;;;;;;;2.63;1.42;;;19.00;70.50;;;;;;5129784;27;45238;-83
2022/04/27 08:59:35;;;;;;;2.53;1.58;;;19.00;70.90;;;;;;5127235;27;46575;-83
2022/04/27 09:02:26;;;;;;;2.03;1.40;;;19.00;71.20;;;;;;5127031;27;45357;-83
2022/04/27 09:05:12;;;;;;;1.77;1.45;;;19.00;71.60;;;;;;5128366;27;45242;-83
2022/04/27 09:07:39;;;;;;;2.28;1.33;;;19.00;70.80;;;;;;5129764;27;45167;-83
2022/04/27 09:10:08;;;;;;;3.22;1.63;;;19.00;71.80;;;;;;5119838;27;47578;-84
2022/04/27 09:12:38;;;;;;;3.20;1.60;;;19.00;72.40;;;;;;5121774;27;45194;-83
2022/04/27 09:15:08;;;;;;;3.03;1.30;;;19.00;72.70;;;;;;5122415;27;45299;-83
2022/04/27 09:23:06;;;;;;;3.95;2.00;;;19.00;72.00;;;;;;5125305;27;45411;-83
2022/04/27 09:25:34;;;;;;;2.13;1.50;;;19.00;72.40;;;;;;5118699;27;45317;-83
2022/04/27 09:28:03;;;;;;;4.47;1.30;;;19.10;72.80;;;;;;5123168;27;45319;-83
2022/04/27 09:30:31;;;;;;;2.15;1.80;;;19.00;72.40;;;;;;5129487;27;45585;-83
2022/04/27 09:32:58;;;;;;;2.03;1.40;;;19.10;72.30;;;;;;5122706;27;45546;-83
2022/04/27 09:35:33;;;;;;;3.05;1.40;;;19.10;72.60;;;;;;5125558;27;45153;-83
2022/04/27 09:38:14;;;;;;;2.15;1.50;;;19.10;72.20;;;;;;5123034;27;45495;-83
2022/04/27 09:40:45;;;;;;;2.83;1.55;;;19.00;72.40;;;;;;5129831;27;46456;-83
2022/04/27 09:43:13;;;;;;;1.48;1.38;;;19.00;72.20;;;;;;5126835;27;45415;-83
2022/04/27 09:45:43;;;;;;;2.20;1.33;;;19.00;73.20;;;;;;5128934;27;45384;-83
2022/04/27 09:48:17;;;;;;;3.97;1.70;;;19.00;72.40;;;;;;5123412;27;45185;-83
2022/04/27 09:50:48;;;;;;;2.55;1.38;;;19.00;71.00;;;;;;5129256;27;48056;-83
2022/04/27 09:53:16;;;;;;;3.13;1.75;;;19.00;72.60;;;;;;5128004;27;45406;-83
2022/04/27 09:55:47;;;;;;;3.92;1.40;;;19.00;70.10;;;;;;5125180;27;45313;-84
2022/04/27 09:58:16;;;;;;;1.48;1.38;;;19.00;70.50;;;;;;5122307;27;45429;-83
2022/04/27 10:00:45;;;;;;;2.38;1.30;;;19.00;71.70;;;;;;5120162;27;45649;-83
2022/04/27 10:03:15;;;;;;;2.25;1.50;;;19.00;71.70;;;;;;5123576;27;45195;-82
2022/04/27 10:05:43;;;;;;;2.45;1.70;;;19.00;72.90;;;;;;5126426;27;45187;-80
2022/04/27 10:08:10;;;;;;;6.53;1.92;;;19.00;71.40;;;;;;5123093;27;45514;-81
2022/04/27 10:10:38;;;;;;;5.35;1.95;;;19.00;76.40;;;;;;5127436;27;46532;-82
2022/04/27 10:13:11;;;;;;;6.25;1.90;;;19.10;75.60;;;;;;5120753;27;45359;-82
2022/04/27 10:15:42;;;;;;;2.95;1.80;;;19.10;75.80;;;;;;5128028;27;45160;-82
2022/04/27 10:18:13;;;;;;;4.53;2.10;;;19.10;75.80;;;;;;5126067;27;45785;-82
2022/04/27 10:20:40;;;;;;;3.00;1.98;;;19.10;76.10;;;;;;5118016;27;45286;-82
2022/04/27 10:23:21;;;;;;;3.15;1.73;;;19.10;75.10;;;;;;5125884;27;45186;-82
2022/04/27 10:26:11;;;;;;;6.78;2.17;;;19.10;74.80;;;;;;5121556;27;45416;-82
2022/04/27 10:28:41;;;;;;;3.08;2.00;;;19.10;75.00;;;;;;5121183;27;45393;-82
2022/04/27 10:31:08;;;;;;;4.38;2.05;;;19.00;75.70;;;;;;5115547;27;46124;-82
2022/04/27 10:33:51;;;;;;;3.60;2.00;;;19.10;73.20;;;;;;5130551;27;45438;-82
2022/04/27 10:36:22;;;;;;;7.60;2.10;;;19.00;75.90;;;;;;5119597;27;45800;-82
2022/04/27 10:39:16;;;;;;;3.72;2.22;;;19.00;73.50;;;;;;5126219;27;45176;-82
2022/04/27 10:41:49;;;;;;;4.40;1.75;;;19.00;72.10;;;;;;5124210;27;45570;-82
2022/04/27 10:44:16;;;;;;;3.78;2.13;;;19.00;71.60;;;;;;5121340;27;45294;-82
2022/04/27 10:46:44;;;;;;;3.83;2.35;;;19.00;72.20;;;;;;5119069;27;45296;-82
2022/04/27 10:49:25;;;;;;;2.88;1.90;;;19.00;71.50;;;;;;5123343;27;45233;-82
2022/04/27 10:52:02;;;;;;;3.15;2.10;;;19.00;72.20;;;;;;5122228;27;46342;-82
2022/04/27 10:54:31;;;;;;;4.50;2.33;;;19.00;71.90;;;;;;5122754;27;45245;-82
2022/04/27 10:57:41;;;;;;;4.07;2.10;;;19.10;71.50;;;;;;5124515;27;45327;-82
2022/04/27 11:00:09;;;;;;;2.70;1.92;;;19.10;70.80;;;;;;5120743;27;45335;-82
2022/04/27 11:02:37;;;;;;;5.15;1.92;;;19.10;70.90;;;;;;5120542;27;46711;-82
2022/04/27 11:05:20;;;;;;;3.78;2.05;;;19.10;70.50;;;;;;5132765;27;45513;-82
2022/04/27 11:07:55;;;;;;;4.00;2.22;;;19.10;71.20;;;;;;5120999;27;45212;-82
2022/04/27 11:10:24;;;;;;;3.38;2.30;;;19.10;70.30;;;;;;5115635;27;45200;-82
2022/04/27 11:12:52;;;;;;;2.65;2.10;;;19.10;70.30;;;;;;5127353;27;47118;-82
2022/04/27 11:15:22;;;;;;;2.60;2.03;;;19.10;70.10;;;;;;5121776;27;45271;-83
2022/04/27 11:17:57;;;;;;;3.72;2.05;;;19.10;70.80;;;;;;5128814;27;45189;-83
2022/04/27 11:20:34;;;;;;;3.50;2.35;;;19.10;71.30;;;;;;5124764;27;45402;-83
2022/04/27 11:23:07;;;;;;;3.10;2.10;;;19.10;70.30;;;;;;5127909;27;45307;-83
2022/04/27 11:25:35;;;;;;;2.58;1.65;;;19.10;71.00;;;;;;5129210;27;45295;-83
2022/04/27 11:28:03;;;;;;;4.03;2.47;;;19.20;71.20;;;;;;5131405;27;45355;-83
2022/04/27 11:30:32;;;;;;;3.53;2.38;;;19.10;71.20;;;;;;5130602;27;45578;-83
2022/04/27 11:33:00;;;;;;;3.42;2.13;;;19.10;70.20;;;;;;5129755;27;47036;-83
2022/04/27 11:35:39;;;;;;;4.13;2.40;;;19.20;70.70;;;;;;5129393;27;45222;-83
2022/04/27 11:38:08;;;;;;;3.70;2.22;;;19.20;72.20;;;;;;5129676;27;45392;-83
2022/04/27 11:40:38;;;;;;;4.28;2.30;;;19.10;71.60;;;;;;5125290;27;45465;-83
2022/04/27 11:43:05;;;;;;;2.78;2.30;;;19.20;70.20;;;;;;5126262;27;48061;-83
2022/04/27 11:45:32;;;;;;;4.63;2.50;;;19.20;70.50;;;;;;5127886;27;45781;-82
2022/04/27 11:48:01;;;;;;;3.88;2.50;;;19.20;69.40;;;;;;5127083;27;45226;-82
2022/04/27 11:50:30;;;;;;;4.65;2.33;;;19.20;70.80;;;;;;5128111;27;45590;-83
2022/04/27 11:53:01;;;;;;;3.50;2.25;;;19.20;70.70;;;;;;5131495;27;46231;-83
2022/04/27 11:55:29;;;;;;;3.45;2.78;;;19.20;70.00;;;;;;5127536;27;45387;-83
2022/04/27 11:57:56;;;;;;;5.10;2.47;;;19.20;70.20;;;;;;5126866;27;45213;-82
2022/04/27 12:00:25;;;;;;;5.22;2.80;;;19.20;69.70;;;;;;5124193;27;45223;-83
2022/04/27 12:02:53;;;;;;;4.35;2.80;;;19.20;69.10;;;;;;5124399;27;48183;-82
2022/04/27 12:05:29;;;;;;;3.28;2.47;;;19.20;68.70;;;;;;5122195;27;45561;-82
2022/04/27 12:07:57;;;;;;;3.50;2.40;;;19.20;68.90;;;;;;5122643;27;45171;-82
2022/04/27 12:10:25;;;;;;;4.03;2.72;;;19.20;69.60;;;;;;5116099;27;46378;-82
2022/04/27 12:12:53;;;;;;;3.58;2.47;;;19.20;69.40;;;;;;5120842;27;45484;-83
2022/04/27 12:15:27;;;;;;;2.67;2.22;;;19.20;70.80;;;;;;5121905;27;45283;-83
2022/04/27 12:17:56;;;;;;;4.07;2.45;;;19.20;70.70;;;;;;5123534;27;45244;-83
2022/04/27 12:20:33;;;;;;;2.85;2.20;;;19.20;71.00;;;;;;5130325;27;45133;-83
2022/04/27 12:23:01;;;;;;;2.80;2.28;;;19.20;71.50;;;;;;5127641;27;45205;-83
2022/04/27 12:25:41;;;;;;;2.88;2.30;;;19.20;71.40;;;;;;5131123;27;45307;-84
2022/04/27 12:28:11;;;;;;;4.32;2.60;;;19.20;71.80;;;;;;5127160;27;45230;-84
2022/04/27 12:30:50;;;;;;;3.30;2.33;;;19.30;70.40;;;;;;5129134;27;45375;-84
2022/04/27 12:33:19;;;;;;;2.33;1.98;;;19.30;70.70;;;;;;5127667;27;45717;-84
2022/04/27 12:38:31;;;;;;;4.50;2.85;;;19.20;70.20;;;;;;5125286;27;45349;-84
2022/04/27 12:41:01;;;;;;;4.72;2.83;;;19.20;69.20;;;;;;5130137;27;45424;-83
2022/04/27 12:43:28;;;;;;;5.43;2.67;;;19.20;68.70;;;;;;5126476;27;46311;-83
2022/04/27 12:46:07;;;;;;;2.95;2.10;;;19.20;70.40;;;;;;5119820;27;45356;-82
2022/04/27 12:48:35;;;;;;;3.65;2.20;;;19.20;70.30;;;;;;5121560;27;45248;-82
2022/04/27 12:51:07;;;;;;;3.22;1.90;;;19.20;71.70;;;;;;5119252;27;45241;-83
2022/04/27 12:53:36;;;;;;;3.65;2.03;;;19.20;71.90;;;;;;5127664;27;47194;-83
2022/04/27 12:56:07;;;;;;;4.10;2.25;;;19.20;68.90;;;;;;5129532;27;45233;-83
2022/04/27 12:58:34;;;;;;;5.43;2.65;;;19.20;68.20;;;;;;5126858;27;45593;-83
2022/04/27 13:01:01;;;;;;;4.05;2.63;;;19.20;67.40;;;;;;5124689;27;45240;-84
2022/04/27 13:03:29;;;;;;;4.82;2.50;;;19.30;68.40;;;;;;5122296;27;46458;-85
2022/04/27 13:05:56;;;;;;;11.48;2.45;;;19.30;69.10;;;;;;5124129;27;45377;-81
2022/04/27 13:08:23;;;;;;;5.43;2.90;;;19.40;70.90;;;;;;5125382;27;45265;-80
2022/04/27 13:13:36;;;;;;;8.48;4.82;;;16.30;60.00;;;;;;5127359;27;45275;-80
2022/04/27 13:16:04;;;;;;;12.48;4.97;;;16.00;60.00;;;;;;5125679;27;45882;-80
2022/04/27 13:18:31;;;;;;;10.68;5.25;;;16.00;60.50;;;;;;5126887;27;45308;-80